createdAt,value
2019-03-06T00:01:00.845Z,10.32
2019-03-06T00:03:27.239Z,21.12
2019-03-06T00:05:53.885Z,12.63
2019-03-06T00:08:20.487Z,12.20
2019-03-06T00:10:47.064Z,12.20
2019-03-06T00:13:13.756Z,6.25
2019-03-06T00:15:40.280Z,18.48
2019-03-06T00:18:06.713Z,12.40
2019-03-06T00:20:33.095Z,18.80
2019-03-06T00:22:59.640Z,16.87
2019-03-06T00:25:26.310Z,22.55
2019-03-06T00:27:52.804Z,19.60
2019-03-06T00:30:19.695Z,12.35
2019-03-06T00:32:46.146Z,8.58
2019-03-06T00:35:24.357Z,7.78
2019-03-06T00:37:50.875Z,7.65
2019-03-06T00:40:36.343Z,14.60
2019-03-06T00:43:03.037Z,10.18
2019-03-06T00:45:29.533Z,9.90
2019-03-06T00:47:56.126Z,18.12
2019-03-06T00:50:22.683Z,18.92
2019-03-06T00:52:49.195Z,17.73
2019-03-06T00:55:16.038Z,9.98
2019-03-06T00:57:42.573Z,9.38
2019-03-06T01:00:26.056Z,9.28
2019-03-06T01:02:53.317Z,14.78
2019-03-06T01:05:20.308Z,15.18
2019-03-06T01:07:47.043Z,11.33
2019-03-06T01:10:14.860Z,8.98
2019-03-06T01:12:41.449Z,10.30
2019-03-06T01:15:10.439Z,8.75
2019-03-06T01:17:36.973Z,8.80
2019-03-06T01:20:07.292Z,13.00
2019-03-06T01:22:33.935Z,10.40
2019-03-06T01:25:00.494Z,13.72
2019-03-06T01:27:27.110Z,10.80
2019-03-06T01:29:53.746Z,10.75
2019-03-06T01:32:20.592Z,10.45
2019-03-06T01:34:54.659Z,8.50
2019-03-06T01:37:22.977Z,13.45
2019-03-06T01:39:57.196Z,12.63
2019-03-06T01:42:25.678Z,14.85
2019-03-06T01:44:52.517Z,12.68
2019-03-06T01:47:19.079Z,21.57
2019-03-06T01:49:45.792Z,10.68
2019-03-06T01:52:12.329Z,10.60
2019-03-06T01:54:38.702Z,8.75
2019-03-06T01:57:05.399Z,12.50
2019-03-06T01:59:32.118Z,12.37
2019-03-06T02:01:58.571Z,9.68
2019-03-06T02:04:25.085Z,11.97
2019-03-06T02:06:51.804Z,12.13
2019-03-06T02:09:19.717Z,11.70
2019-03-06T02:11:46.452Z,11.75
2019-03-06T02:14:12.886Z,10.28
2019-03-06T02:16:39.219Z,11.93
2019-03-06T02:19:06.365Z,13.32
2019-03-06T02:21:32.902Z,11.78
2019-03-06T02:23:59.334Z,12.65
2019-03-06T02:26:26.503Z,9.83
2019-03-06T02:28:52.814Z,11.43
2019-03-06T02:31:19.555Z,13.30
2019-03-06T02:33:46.091Z,10.50
2019-03-06T02:36:12.535Z,11.65
2019-03-06T02:38:39.060Z,12.18
2019-03-06T02:41:05.596Z,11.68
2019-03-06T02:43:32.540Z,11.30
2019-03-06T02:45:59.075Z,13.00
2019-03-06T02:48:25.711Z,15.65
2019-03-06T02:50:52.350Z,12.63
2019-03-06T02:53:18.987Z,12.90
2019-03-06T02:55:45.829Z,13.45
2019-03-06T02:58:23.016Z,14.10
2019-03-06T03:00:57.948Z,12.13
2019-03-06T03:03:26.439Z,13.48
2019-03-06T03:06:13.546Z,13.13
2019-03-06T03:08:39.986Z,13.00
2019-03-06T03:11:06.618Z,11.97
2019-03-06T03:13:33.253Z,10.93
2019-03-06T03:15:59.690Z,12.55
2019-03-06T03:18:26.530Z,11.22
2019-03-06T03:20:53.474Z,12.20
2019-03-06T03:23:20.110Z,11.97
2019-03-06T03:25:46.650Z,18.67
2019-03-06T03:28:13.166Z,15.00
2019-03-06T03:30:39.615Z,11.65
2019-03-06T03:33:06.463Z,16.60
2019-03-06T03:35:33.229Z,14.03
2019-03-06T03:37:59.958Z,15.65
2019-03-06T03:40:26.678Z,16.60
2019-03-06T03:42:53.931Z,13.80
2019-03-06T03:45:20.647Z,13.85
2019-03-06T03:47:47.217Z,14.23
2019-03-06T03:50:13.845Z,16.25
2019-03-06T03:52:40.792Z,16.67
2019-03-06T03:55:15.124Z,18.20
2019-03-06T03:57:42.053Z,22.65
2019-03-06T04:00:16.063Z,30.62
2019-03-06T04:02:42.621Z,27.13
2019-03-06T04:05:11.283Z,30.80
2019-03-06T04:07:37.923Z,33.35
2019-03-06T04:10:09.762Z,27.87
2019-03-06T04:12:36.725Z,41.90
2019-03-06T04:15:08.511Z,37.38
2019-03-06T04:17:35.726Z,44.90
2019-03-06T04:20:04.186Z,36.80
2019-03-06T04:22:30.952Z,38.08
2019-03-06T04:24:57.455Z,40.12
2019-03-06T04:27:24.285Z,31.77
2019-03-06T04:29:50.952Z,19.67
2019-03-06T04:32:17.943Z,21.57
2019-03-06T04:34:44.400Z,25.65
2019-03-06T04:37:10.792Z,23.22
2019-03-06T04:39:37.219Z,25.88
2019-03-06T04:42:03.831Z,29.90
2019-03-06T04:44:30.152Z,28.77
2019-03-06T04:46:56.579Z,28.50
2019-03-06T04:49:22.878Z,26.60
2019-03-06T04:51:49.369Z,21.20
2019-03-06T04:54:15.816Z,27.52
2019-03-06T04:56:42.287Z,24.67
2019-03-06T04:59:08.722Z,25.92
2019-03-06T05:01:35.031Z,25.68
2019-03-06T05:04:01.433Z,25.85
2019-03-06T05:06:27.831Z,23.47
2019-03-06T05:08:54.566Z,21.70
2019-03-06T05:11:20.967Z,24.65
2019-03-06T05:13:47.407Z,25.92
2019-03-06T05:16:13.743Z,23.52
2019-03-06T05:18:45.021Z,24.07
2019-03-06T05:21:11.353Z,19.67
2019-03-06T05:23:37.994Z,18.45
2019-03-06T05:26:04.505Z,21.37
2019-03-06T05:28:31.084Z,19.40
2019-03-06T05:30:57.675Z,20.10
2019-03-06T05:33:24.258Z,20.75
2019-03-06T05:36:27.126Z,16.50
2019-03-06T05:39:06.591Z,16.65
2019-03-06T05:41:32.999Z,17.87
2019-03-06T05:43:59.451Z,16.37
2019-03-06T05:46:25.787Z,15.15
2019-03-06T05:48:52.188Z,16.45
2019-03-06T05:51:18.619Z,14.55
2019-03-06T05:53:45.063Z,15.65
2019-03-06T05:56:11.483Z,13.40
2019-03-06T05:58:37.794Z,11.53
2019-03-06T06:01:04.479Z,11.80
2019-03-06T06:03:30.980Z,14.05
2019-03-06T06:05:57.509Z,13.53
2019-03-06T06:08:24.007Z,13.40
2019-03-06T06:10:50.549Z,15.35
2019-03-06T06:13:16.994Z,12.78
2019-03-06T06:15:43.375Z,15.48
2019-03-06T06:18:09.880Z,18.80
2019-03-06T06:20:36.268Z,17.90
2019-03-06T06:23:03.095Z,19.42
2019-03-06T06:25:31.536Z,17.62
2019-03-06T06:27:58.074Z,14.07
2019-03-06T06:30:25.155Z,17.32
2019-03-06T06:32:51.999Z,16.30
2019-03-06T06:35:18.432Z,18.00
2019-03-06T06:37:44.860Z,20.97
2019-03-06T06:40:14.559Z,21.40
2019-03-06T06:42:41.198Z,23.22
2019-03-06T06:45:14.226Z,18.80
2019-03-06T06:48:13.328Z,24.87
2019-03-06T06:51:01.743Z,21.95
2019-03-06T06:53:33.612Z,18.77
2019-03-06T06:56:50.308Z,21.52
2019-03-06T06:59:43.547Z,18.62
2019-03-06T07:02:58.559Z,21.40
2019-03-06T07:05:29.640Z,20.27
2019-03-06T07:08:00.786Z,16.77
2019-03-06T07:10:45.575Z,19.42
2019-03-06T07:13:12.348Z,17.95
2019-03-06T07:15:55.843Z,23.07
2019-03-06T07:18:26.880Z,20.10
2019-03-06T07:21:10.032Z,18.10
2019-03-06T07:23:56.545Z,15.35
2019-03-06T07:28:51.055Z,13.08
2019-03-06T07:31:28.271Z,14.05
2019-03-06T07:33:56.474Z,12.85
2019-03-06T07:36:41.563Z,11.40
2019-03-06T07:39:10.063Z,10.43
2019-03-06T07:41:38.541Z,11.22
2019-03-06T07:44:07.130Z,9.73
2019-03-06T07:46:50.371Z,11.03
2019-03-06T07:49:21.631Z,9.70
2019-03-06T07:51:56.505Z,9.38
2019-03-06T07:54:24.719Z,10.60
2019-03-06T07:56:56.097Z,10.75
2019-03-06T07:59:22.584Z,9.63
2019-03-06T08:02:03.437Z,11.50
2019-03-06T08:04:30.100Z,9.18
2019-03-06T08:06:58.579Z,8.20
2019-03-06T08:09:25.026Z,9.93
2019-03-06T08:11:57.551Z,8.90
2019-03-06T08:14:38.050Z,9.13
2019-03-06T08:17:06.480Z,8.90
2019-03-06T08:19:51.247Z,9.05
2019-03-06T08:22:19.652Z,9.03
2019-03-06T08:24:47.863Z,7.70
2019-03-06T08:27:14.376Z,29.00
2019-03-06T08:29:41.143Z,11.65
2019-03-06T08:32:09.347Z,9.00
2019-03-06T08:34:36.099Z,9.20
2019-03-06T08:37:02.530Z,10.40
2019-03-06T08:39:29.026Z,11.48
2019-03-06T08:41:55.462Z,10.72
2019-03-06T08:44:21.795Z,11.50
2019-03-06T08:47:02.396Z,10.58
2019-03-06T08:49:38.006Z,9.18
2019-03-06T08:52:04.504Z,9.03
2019-03-06T08:54:44.816Z,9.25
2019-03-06T08:57:29.771Z,8.80
2019-03-06T08:59:58.185Z,8.38
2019-03-06T09:02:35.553Z,7.62
2019-03-06T09:05:22.680Z,9.05
2019-03-06T09:07:50.886Z,9.20
2019-03-06T09:10:23.986Z,8.23
2019-03-06T09:12:54.926Z,8.10
2019-03-06T09:15:32.308Z,8.38
2019-03-06T09:18:09.382Z,9.20
2019-03-06T09:20:46.892Z,8.55
2019-03-06T09:23:23.493Z,8.45
2019-03-06T09:25:51.215Z,8.43
2019-03-06T09:28:17.744Z,9.28
2019-03-06T09:30:48.642Z,8.13
2019-03-06T09:33:22.945Z,7.95
2019-03-06T09:35:51.248Z,8.50
2019-03-06T09:38:31.398Z,7.25
2019-03-06T09:41:00.103Z,6.35
2019-03-06T09:43:31.407Z,5.83
2019-03-06T09:46:03.212Z,7.03
2019-03-06T09:48:48.144Z,6.90
2019-03-06T09:51:28.470Z,6.05
2019-03-06T09:53:57.018Z,5.50
2019-03-06T09:56:25.302Z,5.42
2019-03-06T09:59:02.414Z,4.75
2019-03-06T10:01:31.091Z,3.92
2019-03-06T10:03:59.393Z,4.65
2019-03-06T10:06:27.716Z,4.87
2019-03-06T10:08:58.840Z,4.35
2019-03-06T10:11:39.827Z,5.00
2019-03-06T10:14:20.630Z,4.80
2019-03-06T10:16:49.215Z,4.37
2019-03-06T10:19:29.984Z,4.45
2019-03-06T10:21:59.188Z,5.10
2019-03-06T10:24:25.311Z,7.30
2019-03-06T10:26:51.778Z,5.45
2019-03-06T10:29:18.448Z,5.28
2019-03-06T10:31:44.858Z,4.60
2019-03-06T10:34:11.553Z,6.87
2019-03-06T10:36:38.161Z,5.45
2019-03-06T10:39:05.069Z,6.30
2019-03-06T10:41:31.878Z,5.40
2019-03-06T10:43:59.133Z,5.15
2019-03-06T10:46:25.843Z,4.90
2019-03-06T10:48:52.450Z,5.12
2019-03-06T10:51:19.188Z,7.00
2019-03-06T10:53:46.593Z,5.33
2019-03-06T10:56:13.527Z,4.78
2019-03-06T10:58:40.123Z,5.08
2019-03-06T11:01:07.742Z,7.58
2019-03-06T11:03:39.055Z,5.08
2019-03-06T11:06:06.058Z,8.13
2019-03-06T11:08:32.709Z,5.30
2019-03-06T11:10:59.383Z,4.75
2019-03-06T11:13:26.107Z,5.03
2019-03-06T11:15:55.665Z,5.47
2019-03-06T11:18:21.479Z,4.20
2019-03-06T11:20:48.002Z,4.25
2019-03-06T11:23:14.603Z,4.37
2019-03-06T11:25:41.469Z,5.00
2019-03-06T11:28:10.983Z,5.10
2019-03-06T11:30:57.997Z,6.25
2019-03-06T11:33:25.019Z,5.62
2019-03-06T11:35:58.043Z,4.97
2019-03-06T11:38:25.277Z,4.70
2019-03-06T11:40:51.706Z,5.42
2019-03-06T11:43:18.190Z,5.10
2019-03-06T11:45:45.098Z,4.37
2019-03-06T11:48:11.782Z,4.10
2019-03-06T11:50:41.136Z,4.95
2019-03-06T11:53:07.683Z,5.70
2019-03-06T11:55:34.526Z,6.47
2019-03-06T11:58:01.062Z,5.35
2019-03-06T12:00:30.773Z,4.83
2019-03-06T12:02:57.499Z,5.90
2019-03-06T12:05:24.300Z,6.67
2019-03-06T12:07:50.834Z,8.20
2019-03-06T12:10:18.141Z,6.70
2019-03-06T12:12:44.705Z,6.33
2019-03-06T12:15:12.580Z,6.28
2019-03-06T12:17:38.968Z,7.08
2019-03-06T12:20:08.594Z,8.03
2019-03-06T12:22:35.099Z,6.80
2019-03-06T12:25:01.860Z,5.80
2019-03-06T12:27:28.616Z,9.05
2019-03-06T12:29:55.274Z,6.10
2019-03-06T12:32:21.613Z,5.80
2019-03-06T12:34:48.371Z,5.70
2019-03-06T12:37:15.079Z,7.30
2019-03-06T12:39:42.220Z,5.30
2019-03-06T12:42:14.330Z,5.40
2019-03-06T12:44:37.011Z,5.55
2019-03-06T12:47:03.921Z,5.78
2019-03-06T12:49:32.491Z,7.30
2019-03-06T12:51:59.019Z,5.05
2019-03-06T12:54:25.505Z,5.65
2019-03-06T12:56:52.146Z,6.30
2019-03-06T12:59:18.709Z,5.95
2019-03-06T13:01:45.587Z,7.37
2019-03-06T13:04:12.388Z,6.50
2019-03-06T13:06:38.794Z,4.58
2019-03-06T13:09:11.156Z,4.67
2019-03-06T13:11:37.748Z,5.53
2019-03-06T13:14:04.657Z,5.45
2019-03-06T13:16:31.630Z,4.65
2019-03-06T13:18:58.679Z,5.65
2019-03-06T13:21:25.283Z,4.75
2019-03-06T13:23:51.696Z,4.53
2019-03-06T13:26:18.223Z,5.95
2019-03-06T13:28:44.536Z,6.40
2019-03-06T13:31:11.130Z,5.95
2019-03-06T13:33:42.058Z,4.35
2019-03-06T13:36:09.163Z,5.12
2019-03-06T13:38:35.500Z,5.20
2019-03-06T13:41:01.967Z,6.08
2019-03-06T13:43:28.497Z,4.95
2019-03-06T13:45:54.911Z,5.10
2019-03-06T13:48:21.309Z,5.25
2019-03-06T13:50:47.850Z,5.47
2019-03-06T13:53:20.217Z,6.35
2019-03-06T13:55:42.679Z,5.55
2019-03-06T13:58:09.287Z,5.75
2019-03-06T14:00:35.745Z,6.53
2019-03-06T14:03:02.608Z,5.08
2019-03-06T14:05:29.365Z,5.72
2019-03-06T14:07:56.933Z,6.00
2019-03-06T14:10:24.685Z,5.90
2019-03-06T14:12:51.463Z,5.67
2019-03-06T14:15:18.620Z,5.83
2019-03-06T14:17:45.372Z,6.35
2019-03-06T14:20:20.194Z,5.33
2019-03-06T14:22:46.916Z,6.00
2019-03-06T14:25:14.708Z,5.55
2019-03-06T14:27:42.005Z,5.80
2019-03-06T14:30:21.161Z,4.97
2019-03-06T14:32:48.527Z,5.50
2019-03-06T14:35:15.336Z,5.58
2019-03-06T14:37:42.238Z,8.68
2019-03-06T14:40:23.271Z,5.90
2019-03-06T14:42:50.376Z,6.58
2019-03-06T14:45:17.209Z,8.25
2019-03-06T14:47:43.699Z,8.60
2019-03-06T14:50:10.351Z,8.15
2019-03-06T14:52:36.957Z,8.18
2019-03-06T14:55:09.585Z,6.53
2019-03-06T14:57:36.173Z,5.62
2019-03-06T15:00:06.771Z,8.35
2019-03-06T15:02:34.716Z,7.58
2019-03-06T15:05:01.557Z,6.58
2019-03-06T15:07:28.217Z,7.20
2019-03-06T15:09:54.605Z,6.50
2019-03-06T15:12:21.242Z,5.78
2019-03-06T15:14:47.833Z,6.25
2019-03-06T15:17:14.491Z,8.50
2019-03-06T15:19:40.914Z,9.10
2019-03-06T15:22:07.538Z,8.20
2019-03-06T15:24:40.935Z,8.23
2019-03-06T15:27:02.360Z,8.65
2019-03-06T15:29:28.807Z,7.15
2019-03-06T15:31:55.545Z,7.67
2019-03-06T15:34:23.007Z,9.65
2019-03-06T15:36:49.722Z,9.18
2019-03-06T15:39:26.213Z,9.08
2019-03-06T15:42:00.071Z,12.45
2019-03-06T15:44:21.348Z,15.70
2019-03-06T15:46:48.173Z,16.10
2019-03-06T15:49:14.568Z,13.55
2019-03-06T15:51:41.207Z,17.17
2019-03-06T15:54:08.040Z,20.20
2019-03-06T15:56:34.780Z,20.85
2019-03-06T15:59:01.492Z,17.12
2019-03-06T16:01:28.723Z,22.42
2019-03-06T16:03:55.446Z,16.57
2019-03-06T16:06:22.072Z,15.35
2019-03-06T16:08:48.670Z,17.65
2019-03-06T16:11:15.202Z,11.97
2019-03-06T16:13:41.761Z,14.20
2019-03-06T16:16:08.283Z,13.90
2019-03-06T16:18:34.722Z,14.00
2019-03-06T16:21:01.624Z,23.27
2019-03-06T16:23:28.271Z,22.00
2019-03-06T16:25:54.741Z,41.48
2019-03-06T16:28:21.214Z,35.25
2019-03-06T16:30:47.607Z,28.90
2019-03-06T16:33:14.115Z,31.93
2019-03-06T16:35:40.805Z,53.80
2019-03-06T16:38:07.233Z,65.87
2019-03-06T16:40:33.898Z,56.77
2019-03-06T16:43:00.317Z,44.63
2019-03-06T16:45:28.843Z,41.95
2019-03-06T16:47:55.452Z,43.98
2019-03-06T16:50:22.559Z,43.00
2019-03-06T16:52:49.225Z,40.50
2019-03-06T16:55:17.500Z,39.60
2019-03-06T16:57:44.587Z,35.75
2019-03-06T17:00:32.011Z,25.10
2019-03-06T17:03:09.195Z,26.77
2019-03-06T17:05:35.987Z,27.30
2019-03-06T17:08:03.574Z,35.38
2019-03-06T17:10:31.975Z,44.88
2019-03-06T17:12:58.652Z,44.77
2019-03-06T17:15:27.779Z,44.15
2019-03-06T17:17:54.771Z,42.78
2019-03-06T17:20:29.461Z,48.25
2019-03-06T17:22:56.934Z,68.90
2019-03-06T17:25:25.946Z,73.65
2019-03-06T17:27:52.172Z,90.97
2019-03-06T17:30:26.505Z,90.83
2019-03-06T17:32:58.519Z,68.70
2019-03-06T17:35:26.256Z,58.08
2019-03-06T17:37:52.882Z,58.08
2019-03-06T17:40:19.688Z,68.25
2019-03-06T17:42:46.293Z,96.35
2019-03-06T17:45:15.133Z,130.32
2019-03-06T17:47:41.927Z,186.12
2019-03-06T17:50:11.907Z,185.10
2019-03-06T17:52:38.622Z,170.20
2019-03-06T17:55:07.184Z,122.25
2019-03-06T17:57:33.576Z,125.07
2019-03-06T17:59:59.917Z,152.30
2019-03-06T18:02:26.679Z,170.90
2019-03-06T18:04:53.167Z,163.92
2019-03-06T18:07:19.455Z,189.65
2019-03-06T18:09:46.111Z,159.57
2019-03-06T18:12:12.508Z,152.78
2019-03-06T18:14:39.127Z,182.55
2019-03-06T18:17:05.616Z,178.35
2019-03-06T18:19:32.044Z,183.25
2019-03-06T18:21:58.447Z,156.75
2019-03-06T18:24:25.183Z,161.28
2019-03-06T18:26:51.639Z,160.90
2019-03-06T18:29:18.148Z,157.57
2019-03-06T18:31:44.686Z,139.32
2019-03-06T18:34:11.193Z,133.85
2019-03-06T18:36:38.731Z,145.22
2019-03-06T18:39:07.366Z,168.22
2019-03-06T18:41:33.653Z,183.97
2019-03-06T18:44:00.232Z,179.12
2019-03-06T18:46:26.852Z,192.95
2019-03-06T18:48:53.189Z,130.72
2019-03-06T18:51:19.499Z,106.70
2019-03-06T18:53:45.918Z,86.90
2019-03-06T18:56:12.440Z,72.97
2019-03-06T18:58:38.788Z,94.25
2019-03-06T19:01:05.597Z,98.00
2019-03-06T19:03:32.303Z,63.40
2019-03-06T19:05:58.945Z,63.60
2019-03-06T19:08:31.257Z,43.92
2019-03-06T19:10:54.025Z,49.83
2019-03-06T19:13:20.838Z,40.78
2019-03-06T19:15:47.267Z,37.03
2019-03-06T19:18:13.601Z,30.05
2019-03-06T19:20:40.308Z,28.98
2019-03-06T19:23:07.036Z,37.40
2019-03-06T19:25:33.635Z,26.75
2019-03-06T19:28:00.090Z,28.45
2019-03-06T19:30:26.791Z,27.13
2019-03-06T19:32:53.613Z,34.08
2019-03-06T19:35:22.419Z,38.17
2019-03-06T19:37:49.123Z,36.50
2019-03-06T19:40:17.609Z,38.90
2019-03-06T19:42:44.548Z,51.53
2019-03-06T19:45:20.165Z,47.80
2019-03-06T19:47:47.028Z,46.73
2019-03-06T19:50:21.910Z,39.20
2019-03-06T19:52:48.693Z,41.73
2019-03-06T19:55:17.150Z,36.53
2019-03-06T19:58:00.002Z,36.80
2019-03-06T20:00:29.557Z,44.10
2019-03-06T20:02:56.736Z,49.45
2019-03-06T20:05:28.193Z,55.92
2019-03-06T20:07:54.590Z,50.70
2019-03-06T20:10:21.805Z,39.53
2019-03-06T20:12:48.508Z,36.90
2019-03-06T20:15:17.461Z,42.05
2019-03-06T20:17:44.170Z,31.48
2019-03-06T20:20:15.660Z,34.38
2019-03-06T20:22:42.012Z,29.12
2019-03-06T20:25:10.128Z,22.25
2019-03-06T20:27:36.951Z,18.73
2019-03-06T20:30:14.964Z,22.98
2019-03-06T20:32:41.779Z,18.10
2019-03-06T20:35:08.582Z,17.90
2019-03-06T20:37:35.141Z,22.22
2019-03-06T20:40:02.280Z,13.08
2019-03-06T20:42:29.085Z,13.45
2019-03-06T20:44:55.708Z,9.65
2019-03-06T20:47:22.015Z,7.75
2019-03-06T20:49:48.797Z,9.85
2019-03-06T20:52:15.206Z,11.40
2019-03-06T20:54:41.625Z,12.98
2019-03-06T20:57:08.127Z,15.50
2019-03-06T20:59:36.380Z,13.32
2019-03-06T21:02:02.888Z,15.05
2019-03-06T21:04:29.365Z,12.95
2019-03-06T21:06:55.947Z,15.85
2019-03-06T21:09:22.648Z,12.47
2019-03-06T21:11:49.250Z,13.25
2019-03-06T21:14:15.656Z,15.68
2019-03-06T21:16:42.101Z,17.20
2019-03-06T21:19:08.753Z,15.38
2019-03-06T21:21:35.292Z,16.77
2019-03-06T21:24:01.801Z,14.55
2019-03-06T21:26:28.229Z,16.00
2019-03-06T21:28:54.524Z,15.70
2019-03-06T21:31:20.887Z,19.40
2019-03-06T21:33:47.179Z,21.97
2019-03-06T21:36:13.507Z,13.45
2019-03-06T21:38:39.801Z,11.63
2019-03-06T21:41:06.217Z,14.47
2019-03-06T21:43:32.547Z,9.98
2019-03-06T21:45:58.983Z,12.23
2019-03-06T21:48:25.639Z,13.13
2019-03-06T21:50:52.223Z,11.90
2019-03-06T21:53:18.542Z,11.12
2019-03-06T21:55:44.924Z,10.30
2019-03-06T21:58:11.377Z,11.40
2019-03-06T22:00:37.869Z,11.22
2019-03-06T22:03:04.684Z,11.80
2019-03-06T22:05:31.183Z,11.40
2019-03-06T22:07:57.681Z,10.45
2019-03-06T22:10:24.452Z,11.00
2019-03-06T22:12:50.941Z,10.40
2019-03-06T22:15:22.105Z,20.02
2019-03-06T22:17:48.636Z,14.87
2019-03-06T22:20:15.477Z,14.50
2019-03-06T22:22:42.333Z,10.20
2019-03-06T22:25:14.532Z,13.78
2019-03-06T22:27:41.051Z,15.30
2019-03-06T22:30:17.015Z,16.95
2019-03-06T22:32:43.555Z,20.27
2019-03-06T22:35:10.344Z,13.78
2019-03-06T22:37:36.975Z,11.78
2019-03-06T22:40:08.828Z,13.32
2019-03-06T22:42:35.425Z,13.98
2019-03-06T22:45:02.204Z,10.45
2019-03-06T22:47:28.499Z,13.95
2019-03-06T22:49:56.304Z,13.30
2019-03-06T22:52:22.654Z,12.78
2019-03-06T22:54:49.176Z,11.78
2019-03-06T22:57:15.563Z,12.60
2019-03-06T22:59:42.167Z,10.75
2019-03-06T23:02:09.346Z,9.70
2019-03-06T23:04:35.920Z,10.55
2019-03-06T23:07:02.455Z,10.05
2019-03-06T23:09:28.955Z,10.40
2019-03-06T23:11:55.415Z,10.43
2019-03-06T23:14:21.963Z,11.00
2019-03-06T23:16:49.280Z,11.43
2019-03-06T23:19:15.615Z,12.98
2019-03-06T23:21:42.637Z,12.07
2019-03-06T23:24:08.956Z,13.60
2019-03-06T23:26:42.527Z,12.20
2019-03-06T23:29:03.807Z,10.53
2019-03-06T23:31:30.135Z,13.18
2019-03-06T23:33:56.792Z,11.20
2019-03-06T23:36:23.115Z,15.03
2019-03-06T23:38:49.611Z,12.00
2019-03-06T23:41:16.041Z,11.93
2019-03-06T23:43:42.768Z,10.75
2019-03-06T23:46:09.207Z,9.80
2019-03-06T23:48:35.710Z,11.90
2019-03-06T23:51:04.115Z,18.55
2019-03-06T23:53:32.343Z,11.05
2019-03-06T23:55:58.764Z,9.78
2019-03-06T23:58:25.500Z,7.87
